Flight Track Log - Related Links

Times and Time Zones

All times are in EDT time to prevent confusion due to time zone crossing. See the N8596W flight status page for this flight to view local times or setup timezone preferences in your user account.

Time Position Orientation Groundspeed Altitude Reporting Facility
EDT Latitude Longitude Course Direction KTS MPH feet Rate Location/Type
Tue 03:40:54 PM 40.1000 -75.0000 360° North 86 99 500  Level Philadelphia TRACON
Tue 03:41:36 PM 40.1167 -75.0000 360° North 94 108 1,200 1,000 Climbing Philadelphia TRACON
Tue 03:42:24 PM 40.1333 -75.0167 323° Northwest 91 105 2,000 950 Climbing Philadelphia TRACON
Tue 03:43:36 PM 40.1500 -75.0500 303° West 102 117 3,100 942 Climbing Philadelphia TRACON
Tue 03:44:25 PM 40.1500 -75.0833 270° West 112 129 3,900 661 Climbing Philadelphia TRACON
Tue 03:45:25 PM 40.1500 -75.1167 270° West 101 116 4,300 524 Climbing Philadelphia TRACON
Tue 03:46:31 PM 40.1667 -75.1500 303° West 111 128 5,000 667 Climbing Philadelphia TRACON
Tue 03:47:31 PM 40.1667 -75.2000 270° West 115 132 5,700 650 Climbing Philadelphia TRACON
Tue 03:48:31 PM 40.1667 -75.2333 270° West 107 123 6,300 526 Climbing Philadelphia TRACON
Tue 03:49:25 PM 40.1833 -75.2667 303° West 112 129 6,700 421 Climbing Philadelphia TRACON
Tue 03:50:25 PM 40.1833 -75.3167 270° West 109 125 7,100 400 Climbing Philadelphia TRACON
Tue 03:51:25 PM 40.1833 -75.3500 270° West 111 128 7,500 368 Climbing Philadelphia TRACON
Tue 03:52:19 PM 40.2000 -75.3833 303° West 117 135 7,800 263 Climbing Philadelphia TRACON
Tue 03:53:19 PM 40.2000 -75.4333 270° West 118 136 8,000 99 Climbing Philadelphia TRACON
Tue 03:54:20 PM 40.2167 -75.4833 294° West 139 160 8,000  Level Philadelphia TRACON
Tue 03:55:26 PM 40.2167 -75.5333 270° West 137 158 8,000  Level Philadelphia TRACON
Tue 03:56:32 PM 40.2167 -75.5833 270° West 135 155 8,000 -50 Level Philadelphia TRACON
Tue 03:57:26 PM 40.2333 -75.6333 294° West 136 157 7,900  Descending Philadelphia TRACON
Tue 03:58:26 PM 40.2333 -75.6833 270° West 135 155 8,000 48 Climbing Philadelphia TRACON
Tue 03:59:32 PM 40.2333 -75.7333 270° West 135 155 8,000  Level Philadelphia TRACON
Tue 04:00:32 PM 40.2333 -75.7833 270° West 134 154 8,000  Level Philadelphia TRACON
Tue 04:02:00 PM 40.2500 -75.8539 270° West  Level FlightAware Approximate
Tue 04:08:57 PM 40.2656 -76.1942 270° West 140 161 8,000  Level Cleveland Center
Tue 04:09:00 PM 40.2722 -76.2022 274° West  Level FlightAware Approximate
Tue 04:09:59 PM 40.2647 -76.2442 269° West 137 158 8,000  Level Cleveland Center
Tue 04:10:00 PM 40.2745 -76.2522 273° West  Level FlightAware Approximate
Tue 04:11:00 PM 40.2768 -76.3022 273° West  Level FlightAware Approximate
Tue 04:11:01 PM 40.2658 -76.2953 272° West 140 161 8,000  Level Cleveland Center
Tue 04:12:00 PM 40.2790 -76.3522 273° West  Level FlightAware Approximate
Tue 04:12:03 PM 40.2675 -76.3461 272° West 141 162 8,100  Level Cleveland Center
Tue 04:13:00 PM 40.2812 -76.4022 273° West  Level FlightAware Approximate
Tue 04:13:05 PM 40.2706 -76.3964 275° West 139 160 8,100  Level Cleveland Center
Tue 04:14:00 PM 40.2833 -76.4522 270° West  Level FlightAware Approximate
Tue 04:14:07 PM 40.2736 -76.4475 274° West 141 162 8,000  Level Cleveland Center
Tue 04:15:09 PM 40.2750 -76.5081 272° West 139 160 8,000  Level Cleveland Center
Tue 04:16:11 PM 40.2761 -76.5594 272° West 140 161 8,000 -48 Level Cleveland Center
Tue 04:17:13 PM 40.2767 -76.6092 271° West 139 160 7,900  Descending Cleveland Center
Tue 04:18:16 PM 40.2794 -76.6603 274° West 139 160 8,000 48 Climbing Cleveland Center
Tue 04:19:18 PM 40.2808 -76.7089 272° West 137 158 8,000 -48 Level Cleveland Center
Tue 04:20:20 PM 40.2811 -76.7581 270° West 135 155 7,900 -48 Descending Cleveland Center
Tue 04:21:22 PM 40.2836 -76.8211 273° West 140 161 7,900 48 Level Cleveland Center
Tue 04:22:24 PM 40.2861 -76.8711 274° West 139 160 8,000  Climbing Cleveland Center
Tue 04:23:26 PM 40.2867 -76.9192 271° West 134 154 7,900  Descending Cleveland Center
Tue 04:24:28 PM 40.2892 -76.9694 274° West 137 158 8,000 48 Climbing Cleveland Center
Tue 04:25:30 PM 40.2889 -77.0186 270° West 135 155 8,000 48 Level Cleveland Center
Tue 04:26:32 PM 40.2897 -77.0694 271° West 138 159 8,100  Climbing Cleveland Center
Tue 04:27:34 PM 40.2922 -77.1300 273° West 139 160 8,000 -48 Descending Cleveland Center
Tue 04:28:36 PM 40.2956 -77.1808 275° West 139 160 8,000 -48 Level Cleveland Center
Tue 04:29:38 PM 40.2958 -77.2294 270° West 141 162 7,900  Descending Cleveland Center
Tue 04:30:40 PM 40.2964 -77.2778 271° West 136 157 8,000 48 Climbing Cleveland Center
Tue 04:31:43 PM 40.2981 -77.3389 272° West 139 160 8,000  Level Cleveland Center
Tue 04:32:45 PM 40.2994 -77.3878 272° West 137 158 8,000  Level Cleveland Center
Tue 04:33:47 PM 40.3000 -77.4389 271° West 139 160 8,000  Level Cleveland Center
Tue 04:34:49 PM 40.3006 -77.4900 271° West 140 161 8,000  Level Cleveland Center
Tue 04:35:51 PM 40.3028 -77.5403 273° West 139 160 8,000  Level Cleveland Center
Tue 04:36:53 PM 40.3039 -77.6011 271° West 140 161 8,000  Level Cleveland Center
Tue 04:37:55 PM 40.3056 -77.6497 273° West 138 159 8,000 -48 Level Cleveland Center
Tue 04:38:57 PM 40.3064 -77.7000 271° West 137 158 7,900 -48 Descending Cleveland Center
Tue 04:39:59 PM 40.3075 -77.7506 272° West 140 161 7,900 48 Level Cleveland Center
Tue 04:41:01 PM 40.3086 -77.8000 272° West 138 159 8,000  Climbing Cleveland Center
Tue 04:42:03 PM 40.3100 -77.8503 272° West 138 159 7,900  Descending Cleveland Center
Tue 04:42:41 PM 40.3106 -77.8917 271° West 138 159 8,000 97 Climbing Cleveland Center
Tue 04:43:05 PM 40.3094 -77.9128 266° West 141 162 8,000  Level Cleveland Center
Tue 04:43:41 PM 40.3092 -77.9408 269° West 138 159 8,000  Level Cleveland Center
Tue 04:44:08 PM 40.3069 -77.9617 262° West 138 159 8,000  Level Cleveland Center
Tue 04:44:41 PM 40.2992 -77.9886 249° West 137 158 8,000  Level Cleveland Center
Tue 04:45:10 PM 40.2906 -78.0092 241° Southwest 143 165 8,000  Level Cleveland Center
Tue 04:45:42 PM 40.2814 -78.0331 243° Southwest 141 162 8,000  Level Cleveland Center
Tue 04:46:12 PM 40.2758 -78.0547 251° West 138 159 8,000  Level Cleveland Center
Tue 04:46:43 PM 40.2692 -78.0861 254° West 140 161 8,000  Level Cleveland Center
Tue 04:47:14 PM 40.2661 -78.1028 256° West 139 160 8,000  Level Cleveland Center
Tue 04:47:43 PM 40.2614 -78.1344 259° West 137 158 8,000  Level Cleveland Center
Tue 04:48:16 PM 40.2553 -78.1594 252° West 135 155 8,000  Level Cleveland Center
Tue 04:48:38 PM 40.2497 -78.1767 247° West 136 157 8,000  Level Cleveland Center
Tue 04:49:18 PM 40.2425 -78.2033 250° West 130 150 8,000 98 Level Cleveland Center
Tue 04:49:39 PM 40.2358 -78.2214 244° Southwest 136 157 8,100 97 Climbing Cleveland Center
Tue 04:50:20 PM 40.2292 -78.2478 252° West 132 152 8,100  Level Cleveland Center
Tue 04:50:39 PM 40.2239 -78.2689 252° West 136 157 8,100 -95 Level Cleveland Center
Tue 04:51:23 PM 40.2178 -78.2953 253° West 135 155 8,000 -98 Descending Cleveland Center
Tue 04:51:40 PM 40.2117 -78.3194 252° West 139 160 8,000  Level Cleveland Center
Tue 04:52:24 PM 40.2067 -78.3439 255° West 138 159 8,000  Level Cleveland Center
Tue 04:52:41 PM 40.2019 -78.3672 255° West 139 160 8,000  Level Cleveland Center
Tue 04:53:26 PM 40.1931 -78.4014 251° West 139 160 8,000  Level Cleveland Center
Tue 04:53:41 PM 40.1897 -78.4147 252° West 139 160 8,000  Level Cleveland Center
Tue 04:54:28 PM 40.1836 -78.4508 258° West 140 161 8,000  Level Cleveland Center
Tue 04:54:42 PM 40.1797 -78.4628 247° West 138 159 8,000  Level Cleveland Center
Tue 04:55:30 PM 40.1711 -78.5008 254° West 140 161 8,000  Level Cleveland Center
Tue 04:55:43 PM 40.1656 -78.5128 239° Southwest 139 160 8,000  Level Cleveland Center
Tue 04:56:32 PM 40.1569 -78.5483 252° West 141 162 8,000 -91 Level Cleveland Center
Tue 04:56:49 PM 40.1531 -78.5658 254° West 139 160 7,900 -381 Descending Cleveland Center
Tue 04:57:35 PM 40.1458 -78.5978 254° West 141 162 7,600 -590 Descending Cleveland Center
Tue 04:57:50 PM 40.1406 -78.6158 249° West 148 170 7,300 -677 Descending Cleveland Center
Tue 04:58:37 PM 40.1317 -78.6594 255° West 146 168 6,900 -500 Descending Cleveland Center
Tue 04:58:50 PM 40.1300 -78.6719 260° West 149 171 6,800 -194 Descending Cleveland Center
Tue 04:59:39 PM 40.1231 -78.7106 257° West 145 167 6,700 -197 Descending Cleveland Center
Tue 04:59:51 PM 40.1217 -78.7225 261° West 144 166 6,600 -387 Descending Cleveland Center
Tue 05:00:41 PM 40.1192 -78.7636 265° West 146 168 6,300 -360 Descending Cleveland Center
Tue 05:02:00 PM 40.0898 -78.8119 232° Southwest  Level FlightAware Approximate
Tue 05:09:00 PM 40.0333 -79.0000 254° West  Level FlightAware Approximate
Tue 05:10:00 PM 40.0389 -79.0150 254° West  Level Estimated

Login

Don't have an account? Register now (free) for customized features, flight alerts, and more!